Buffaloville, Indiana
Current Conditions -  °F | °C
As of 4:55 PM on Tuesday 21 Oct 2014 (Local Time) from KHNB Reporting Station
Few Clouds Few Clouds  
Wind Chill: 59°   Ceiling: Unl
Heat Index: 59°   Visibility: 10mi
Dew Point: 41°   Wind: 15mph
Humidity: 51%   Direction: 40°NE
Pressure: 30.11"   Gusts: NA
Location:  38.0467°N, 86.9637°W
Report Text: KHNB 212155Z AUTO 04013KT 10SM FEW050 15/05 A3011 RMK AO1
Loading
Personal Weather Stations






























Interactive Weather Map
Tropical Storm Tracking
New forecast layout! Learn more

10-Day Weather Forecast

Advertisements
Track Severe Weather on mobile